createdAt,value
2023-03-11T00:00:46.934Z,88.05
2023-03-11T00:05:43.383Z,87.97
2023-03-11T00:10:39.268Z,88.06
2023-03-11T00:15:32.728Z,88.05
2023-03-11T00:20:28.744Z,87.93
2023-03-11T00:25:23.998Z,88.15
2023-03-11T00:30:18.600Z,88.13
2023-03-11T00:35:18.088Z,88.23
2023-03-11T00:40:18.763Z,87.89
2023-03-11T00:45:13.128Z,88.12
2023-03-11T00:50:07.873Z,88.19
2023-03-11T00:55:01.068Z,88.23
2023-03-11T00:59:53.984Z,88.54
2023-03-11T01:04:46.816Z,88.67
2023-03-11T01:09:39.906Z,88.28
2023-03-11T01:14:33.992Z,88.46
2023-03-11T01:19:27.241Z,88.27
2023-03-11T01:24:20.367Z,88.15
2023-03-11T01:29:13.150Z,88.27
2023-03-11T01:34:07.448Z,88.34
2023-03-11T01:39:00.266Z,88.50
2023-03-11T01:43:55.748Z,88.33
2023-03-11T01:49:00.139Z,88.58
2023-03-11T01:53:57.272Z,88.42
2023-03-11T01:58:54.433Z,88.75
2023-03-11T02:03:48.131Z,88.71
2023-03-11T02:08:42.872Z,88.66
2023-03-11T02:13:37.648Z,88.60
2023-03-11T02:18:32.802Z,88.38
2023-03-11T02:23:32.201Z,88.16
2023-03-11T02:28:26.920Z,88.29
2023-03-11T02:33:20.612Z,87.83
2023-03-11T02:38:14.532Z,88.04
2023-03-11T02:43:11.759Z,88.23
2023-03-11T02:48:05.449Z,88.16
2023-03-11T02:52:59.056Z,88.18
2023-03-11T02:57:51.883Z,88.04
2023-03-11T03:02:47.001Z,87.83
2023-03-11T03:07:40.348Z,87.70
2023-03-11T03:12:33.487Z,87.73
2023-03-11T03:17:26.753Z,87.38
2023-03-11T03:22:19.654Z,87.37
2023-03-11T03:27:13.032Z,87.56
2023-03-11T03:32:06.921Z,87.62
2023-03-11T03:37:03.435Z,87.65
2023-03-11T03:41:56.329Z,87.14
2023-03-11T03:46:49.731Z,87.19
2023-03-11T03:51:43.278Z,87.00
2023-03-11T03:56:43.009Z,87.00
2023-03-11T04:01:36.110Z,87.30
2023-03-11T04:06:29.591Z,86.92
2023-03-11T04:11:25.960Z,86.54
2023-03-11T04:16:22.615Z,86.82
2023-03-11T04:21:16.638Z,87.05
2023-03-11T04:26:10.420Z,86.74
2023-03-11T04:31:03.850Z,87.04
2023-03-11T04:35:57.518Z,87.08
2023-03-11T04:40:51.142Z,87.07
2023-03-11T04:45:44.170Z,87.12
2023-03-11T04:50:37.893Z,87.44
2023-03-11T04:55:31.229Z,87.34
2023-03-11T05:00:27.188Z,87.63
2023-03-11T05:05:28.249Z,87.54
2023-03-11T05:10:23.531Z,87.63
2023-03-11T05:15:20.704Z,87.63
2023-03-11T05:20:15.856Z,88.24
2023-03-11T05:25:09.701Z,88.23
2023-03-11T05:30:03.285Z,88.19
2023-03-11T05:34:57.525Z,88.14
2023-03-11T05:39:50.543Z,88.26
2023-03-11T05:44:43.658Z,88.51
2023-03-11T05:49:37.807Z,88.36
2023-03-11T05:54:31.118Z,88.34
2023-03-11T05:59:24.122Z,88.26
2023-03-11T06:04:21.691Z,88.51
2023-03-11T06:09:15.806Z,88.50
2023-03-11T06:14:13.491Z,88.44
2023-03-11T06:19:07.037Z,88.78
2023-03-11T06:24:02.911Z,88.66
2023-03-11T06:28:56.539Z,88.80
2023-03-11T06:33:49.803Z,88.84
2023-03-11T06:38:43.316Z,89.24
2023-03-11T06:43:37.632Z,89.11
2023-03-11T06:48:30.892Z,88.98
2023-03-11T06:53:25.737Z,88.73
2023-03-11T06:58:18.680Z,88.63
2023-03-11T07:03:11.635Z,88.30
2023-03-11T07:08:04.626Z,88.03
2023-03-11T07:12:57.546Z,87.94
2023-03-11T07:17:50.702Z,87.86
2023-03-11T07:22:43.948Z,87.51
2023-03-11T07:27:36.877Z,87.59
2023-03-11T07:32:29.937Z,87.68
2023-03-11T07:37:22.849Z,87.69
2023-03-11T07:42:15.663Z,87.63
2023-03-11T07:47:08.574Z,87.66
2023-03-11T07:52:02.182Z,87.62
2023-03-11T07:56:54.988Z,87.45
2023-03-11T08:01:48.276Z,87.25
2023-03-11T08:06:43.612Z,87.13
2023-03-11T08:11:37.630Z,87.08
2023-03-11T08:16:32.223Z,86.96
2023-03-11T08:21:32.264Z,86.83
2023-03-11T08:26:25.259Z,86.90
2023-03-11T08:31:30.656Z,86.62
2023-03-11T08:36:23.610Z,86.51
2023-03-11T08:41:17.450Z,86.17
2023-03-11T08:46:16.483Z,86.18
2023-03-11T08:51:14.339Z,85.84
2023-03-11T08:56:07.717Z,85.99
2023-03-11T09:01:00.887Z,85.99
2023-03-11T09:06:06.124Z,86.00
2023-03-11T09:10:59.114Z,85.94
2023-03-11T09:15:53.018Z,86.10
2023-03-11T09:20:46.986Z,86.11
2023-03-11T09:25:39.793Z,86.37
2023-03-11T09:30:32.875Z,86.41
2023-03-11T09:35:26.245Z,86.57
2023-03-11T09:40:22.295Z,86.66
2023-03-11T09:45:22.896Z,86.76
2023-03-11T09:50:31.559Z,86.88
2023-03-11T09:55:37.471Z,86.92
2023-03-11T10:00:30.640Z,87.13
2023-03-11T10:05:27.825Z,87.32
2023-03-11T10:10:21.176Z,87.46
2023-03-11T10:15:35.982Z,87.42
2023-03-11T10:20:57.901Z,86.78
2023-03-11T10:26:28.791Z,85.94
2023-03-11T10:31:50.386Z,85.00
2023-03-11T10:37:00.364Z,84.88
2023-03-11T10:42:04.342Z,84.31
2023-03-11T10:46:57.507Z,84.09
2023-03-11T10:51:52.788Z,83.98
2023-03-11T10:56:56.524Z,83.85
2023-03-11T11:02:05.111Z,83.68
2023-03-11T11:06:59.537Z,83.78
2023-03-11T11:12:03.673Z,83.82
2023-03-11T11:16:56.490Z,83.72
2023-03-11T11:21:52.605Z,83.38
2023-03-11T11:27:05.772Z,83.34
2023-03-11T11:32:17.184Z,82.96
2023-03-11T11:37:15.448Z,83.28
2023-03-11T11:42:13.441Z,82.62
2023-03-11T11:47:19.228Z,82.15
2023-03-11T11:52:25.392Z,81.08
2023-03-11T11:57:21.966Z,80.66
2023-03-11T12:02:18.360Z,80.03
2023-03-11T12:07:13.913Z,79.98
2023-03-11T12:12:09.459Z,79.81
2023-03-11T12:17:07.557Z,79.17
2023-03-11T12:22:28.584Z,79.56
2023-03-11T12:28:06.451Z,79.68
2023-03-11T12:33:06.595Z,80.19
2023-03-11T12:38:14.490Z,80.41
2023-03-11T12:43:23.697Z,80.22
2023-03-11T12:48:28.455Z,80.11
2023-03-11T12:53:21.835Z,80.48
2023-03-11T12:58:54.377Z,80.57
2023-03-11T13:03:59.077Z,80.54
2023-03-11T13:08:55.950Z,80.72
2023-03-11T13:13:48.735Z,80.89
2023-03-11T13:18:43.444Z,80.69
2023-03-11T13:23:40.598Z,80.80
2023-03-11T13:28:54.471Z,80.85
2023-03-11T13:33:53.797Z,81.05
2023-03-11T13:39:05.724Z,80.42
2023-03-11T13:44:05.384Z,80.26
2023-03-11T13:49:11.458Z,80.54
2023-03-11T13:54:17.838Z,80.36
2023-03-11T13:59:28.571Z,80.23
2023-03-11T14:04:28.168Z,80.27
2023-03-11T14:09:23.841Z,80.43
2023-03-11T14:14:37.409Z,80.79
2023-03-11T14:19:30.245Z,80.68
2023-03-11T14:24:32.667Z,80.44
2023-03-11T14:29:36.585Z,80.61
2023-03-11T14:34:31.763Z,80.64
2023-03-11T14:39:24.524Z,80.38
2023-03-11T14:44:17.904Z,80.44
2023-03-11T14:49:19.860Z,80.86
2023-03-11T14:54:22.754Z,81.04
2023-03-11T14:59:23.268Z,80.26
2023-03-11T15:04:38.474Z,80.07
2023-03-11T15:09:32.904Z,79.70
2023-03-11T15:14:25.694Z,78.61
2023-03-11T15:19:30.487Z,78.66
2023-03-11T15:24:27.894Z,78.48
2023-03-11T15:29:21.486Z,78.61
2023-03-11T15:34:20.308Z,78.10
2023-03-11T15:39:18.656Z,77.94
2023-03-11T15:44:34.285Z,77.49
2023-03-11T15:49:27.451Z,77.78
2023-03-11T15:54:20.256Z,77.07
2023-03-11T15:59:16.355Z,76.69
2023-03-11T16:04:16.525Z,76.60
2023-03-11T16:09:10.358Z,76.49
2023-03-11T16:14:03.572Z,76.17
2023-03-11T16:18:56.376Z,76.31
2023-03-11T16:23:52.221Z,75.86
2023-03-11T16:28:45.369Z,75.86
2023-03-11T16:33:38.382Z,75.82
2023-03-11T16:38:32.445Z,75.61
2023-03-11T16:43:25.521Z,75.44
2023-03-11T16:48:18.324Z,75.27
2023-03-11T16:53:11.290Z,75.28
2023-03-11T16:58:04.611Z,75.04
2023-03-11T17:02:57.825Z,74.87
2023-03-11T17:07:54.769Z,75.19
2023-03-11T17:12:47.732Z,74.81
2023-03-11T17:17:40.513Z,74.91
2023-03-11T17:22:33.446Z,74.40
2023-03-11T17:27:26.281Z,74.45
2023-03-11T17:32:20.171Z,74.69
2023-03-11T17:37:14.352Z,74.91
2023-03-11T17:42:07.592Z,74.96
2023-03-11T17:47:00.717Z,74.82
2023-03-11T17:51:53.975Z,75.19
2023-03-11T17:56:47.246Z,75.35
2023-03-11T18:01:40.403Z,75.08
2023-03-11T18:06:33.172Z,74.78
2023-03-11T18:11:28.670Z,74.88
2023-03-11T18:16:27.985Z,74.92
2023-03-11T18:21:26.282Z,75.11
2023-03-11T18:26:20.011Z,74.88
2023-03-11T18:31:17.720Z,74.90
2023-03-11T18:36:14.605Z,74.90
2023-03-11T18:41:07.537Z,75.26
2023-03-11T18:46:01.969Z,74.94
2023-03-11T18:50:56.650Z,74.74
2023-03-11T18:55:49.877Z,74.47
2023-03-11T19:00:42.649Z,74.68
2023-03-11T19:05:35.448Z,74.45
2023-03-11T19:10:28.251Z,74.25
2023-03-11T19:15:23.165Z,74.30
2023-03-11T19:20:16.132Z,74.02
2023-03-11T19:25:09.320Z,74.23
2023-03-11T19:30:02.113Z,74.19
2023-03-11T19:34:54.909Z,74.00
2023-03-11T19:39:47.675Z,73.91
2023-03-11T19:44:40.533Z,74.05
2023-03-11T19:49:33.597Z,73.98
2023-03-11T19:54:26.402Z,73.84
2023-03-11T19:59:19.204Z,73.85
2023-03-11T20:04:12.716Z,73.97
2023-03-11T20:09:07.043Z,74.04
2023-03-11T20:13:59.872Z,73.91
2023-03-11T20:18:53.242Z,73.75
2023-03-11T20:23:46.092Z,73.42
2023-03-11T20:28:39.330Z,73.64
2023-03-11T20:33:32.458Z,73.46
2023-03-11T20:38:25.340Z,73.69
2023-03-11T20:43:19.878Z,73.69
2023-03-11T20:48:12.705Z,73.83
2023-03-11T20:53:06.599Z,73.83
2023-03-11T20:57:59.901Z,73.77
2023-03-11T21:02:53.101Z,73.94
2023-03-11T21:07:46.158Z,73.82
2023-03-11T21:12:39.838Z,74.14
2023-03-11T21:17:32.936Z,74.24
2023-03-11T21:22:26.175Z,74.22
2023-03-11T21:27:20.950Z,74.38
2023-03-11T21:32:14.005Z,74.38
2023-03-11T21:37:07.192Z,74.41
2023-03-11T21:42:00.564Z,74.42
2023-03-11T21:46:53.556Z,74.58
2023-03-11T21:51:47.642Z,74.52
2023-03-11T21:56:40.998Z,74.68
2023-03-11T22:01:34.795Z,74.66
2023-03-11T22:06:30.959Z,74.96
2023-03-11T22:11:24.376Z,74.87
2023-03-11T22:16:17.255Z,75.04
2023-03-11T22:21:11.210Z,75.12
2023-03-11T22:26:04.356Z,75.17
2023-03-11T22:30:57.230Z,75.33
2023-03-11T22:35:55.575Z,75.31
2023-03-11T22:40:48.990Z,75.19
2023-03-11T22:45:41.828Z,75.35
2023-03-11T22:50:36.508Z,75.26
2023-03-11T22:55:29.330Z,75.55
2023-03-11T23:00:24.603Z,75.35
2023-03-11T23:05:17.536Z,75.59
2023-03-11T23:10:13.550Z,75.62
2023-03-11T23:15:09.805Z,75.59
2023-03-11T23:20:03.799Z,75.64
2023-03-11T23:24:56.635Z,75.63
2023-03-11T23:29:50.715Z,75.67
2023-03-11T23:34:43.820Z,75.82
2023-03-11T23:39:36.608Z,75.77
2023-03-11T23:44:29.413Z,75.92
2023-03-11T23:49:22.667Z,76.03
2023-03-11T23:54:15.974Z,76.06
2023-03-11T23:59:08.808Z,76.08
